AirNav   Pilot Hours Calculator
 
 981 users online  

ND68 Vining Airport
Wheatland, North Dakota, USA

GOING TO WHEATLAND?


FAA INFORMATION EFFECTIVE 03 NOVEMBER 2022

Location

FAA Identifier: ND68
Lat/Long: 46-57-20.9090N 097-18-04.3200W
46-57.348483N 097-18.072000W
46.9558081,-97.3012000
(estimated)
Elevation: 980 ft. / 299 m (estimated)
Variation: 06E (1985)
From city: 3 miles NE of WHEATLAND, ND
Time zone: UTC -6 (UTC -5 during Daylight Saving Time)
Zip code: 58079

Airport Operations

Airport use: Private use. Permission required prior to landing
Activation date: 09/1968
Control tower: no
ARTCC: MINNEAPOLIS CENTER
FSS: GRAND FORKS FLIGHT SERVICE STATION
Attendance: UNATNDD
Wind indicator: yes
Segmented circle: no

Airport Communications

WX ASOS at FAR (20 nm E): PHONE 701-298-3877

Nearby radio navigation aids

VOR radial/distance  VOR name  Freq  Var
FARr294/22.1FARGO VOR/DME116.2009E

Airport Services

Parking: hangars
Airframe service: NONE
Powerplant service: NONE
Bottled oxygen: NONE
Bulk oxygen: NONE

Runway Information

Runway 17/35

Dimensions: 3200 x 75 ft. / 975 x 23 m
Surface: turf
RUNWAY 17  RUNWAY 35
Traffic pattern: leftleft
Runway end identifier lights: nono
Obstructions: hangar, 200 ft. from runway, 10:1 slope to clear
HANGAR 38' RIGHT OF CNTRLN.
pline, 1900 ft. from runway, 24:1 slope to clear

Airport Ownership and Management from official FAA records

Ownership: Privately-owned
Owner: LORRY VINING
15108 31ST ST SE
WHEATLAND, ND 58079
Phone 701-347-4786

Airport Operational Statistics

Aircraft based on the field: 3
Single engine airplanes: 2
Ultralights: 1
    
Aircraft operations: 190/year
79% local general aviation
21% transient general aviation

Additional Remarks

FOR CD CTC MINNEAPOLIS ARTCC AT 651-463-5588.

Instrument Procedures

There are no published instrument procedures at ND68.

Some nearby airports with instrument procedures:

5N8 - Casselton Robert Miller Regional Airport (7 nm SE)
KFAR - Hector International Airport (20 nm E)
K74 - Robert Odegaard Field Airport (22 nm SE)
3H4 - Hillsboro Municipal Airport (26 nm N)
KJKJ - Moorhead Municipal Airport/Florence Klingensmith Field (27 nm E)
 
Loc | Ops | Rwys | IFR | FBO | Links
Com | Nav | Svcs | Stats | Notes

Bismarck Aero Center
AirBoss

 
Area around ND68 (Vining Airport)
 
Road maps at: MapQuest Bing Google
 
Aerial photo
No photo
 
Sectional chart

 
Airport distance calculator
Flying to Vining Airport? Find the distance to fly.

From to ND68

Sunrise and sunset
Times for 26-Nov-2022
 Local
(UTC-6)
 Zulu
(UTC)
Morning civil twilight07:1513:15
Sunrise07:4913:49
Sunset16:4422:44
Evening civil twilight17:1823:18

Current date and time
Zulu (UTC)  26-Nov-2022 15:49:09
Local (UTC-6)  26-Nov-2022 09:49:09
 
METAR
KFAR 
20nm E 
261453Z 24006KT 10SM CLR 01/M02 A2968 RMK AO2 SLP062 T00061022 53015
KJKJ 
27nm E 
261535Z AUTO 26004KT 10SM CLR 01/M02 A2969 RMK AO2 TSNO
KBAC 
29nm W 
261535Z AUTO 33014KT 10SM -SN CLR 03/01 A2972 RMK AO2
TAF
KFAR 
20nm E 
261124Z 2612/2712 21008KT P6SM SCT250 FM261500 30008KT P6SM SCT250 FM261800 33012G20KT P6SM BKN240 FM270200 32009KT P6SM BKN220
NOTAMs
Click for the latest NOTAMs
NOTAMs are issued by the DoD/FAA and will open in a separate window not controlled by AirNav.

 

 
 

Would you like to see your business listed on this page?

 If your business provides an interesting product or service to pilots, flight crews, aircraft, or users of the Vining Airport, you should consider listing it here.  To start the listing process, click on the button below
 
Add a business
 

Other Pages about Vining Airport

Update a link
 
Copyright © AirNav, LLC. All rights reserved. Privacy Policy  Contact